Flight Track Log - Related Links

Times and Time Zones

All times are in EDT time to prevent confusion due to time zone crossing. See the UAL6148 flight status page for this flight to view local times or setup timezone preferences in your user account.

Time Position Orientation Groundspeed Altitude Reporting Facility
EDT Latitude Longitude Course Direction KTS MPH feet Rate Location/Type
Mon 07:20:46 PM 42.0000 -88.0167 261° West 223 257 4,100  Level Chicago TRACON
Mon 07:22:17 PM 42.0000 -88.1489 270° West 234 269 6,700 2,196 Climbing Chicago Center
Mon 07:23:19 PM 42.0436 -88.2228 308° West 284 327 9,700 2,903 Climbing Chicago Center
Mon 07:24:21 PM 42.0794 -88.3072 300° West 264 304 12,700 2,488 Climbing Chicago Center
Mon 07:25:22 PM 42.0875 -88.3903 277° West 229 264 14,800 1,659 Climbing Chicago Center
Mon 07:26:00 PM 41.8970 -88.6345 261° West  Level FlightAware Approximate
Mon 07:26:24 PM 42.0856 -88.5056 269° West 259 298 16,100  Level Chicago Center
Mon 07:27:26 PM 42.0647 -88.6039 254° West 274 315 18,400 1,790 Climbing Chicago Center
Mon 07:28:28 PM 42.0439 -88.7050 255° West 280 322 19,800 1,403 Climbing Chicago Center
Mon 07:29:30 PM 42.0217 -88.8125 254° West 296 341 21,300 1,403 Climbing Chicago Center
Mon 07:30:32 PM 41.9986 -88.9231 254° West 309 356 22,700 1,548 Climbing Chicago Center
Mon 07:31:34 PM 41.9669 -89.0597 253° West 319 367 24,500 2,146 Climbing Chicago Center
Mon 07:32:35 PM 41.9533 -89.1719 261° West 308 354 27,100 2,244 Climbing Chicago Center
Mon 07:33:37 PM 41.9422 -89.2744 262° West 287 330 29,100 1,597 Climbing Chicago Center
Mon 07:34:39 PM 41.9308 -89.3733 261° West 274 315 30,400 1,258 Climbing Chicago Center
Mon 07:35:41 PM 41.9203 -89.4733 262° West 273 314 31,700 780 Climbing Chicago Center
Mon 07:36:42 PM 41.9075 -89.5800 261° West 286 329 32,000 146 Climbing Chicago Center
Mon 07:37:44 PM 41.8908 -89.7269 261° West 332 382 32,000  Level Chicago Center
Mon 07:38:46 PM 41.8750 -89.8592 261° West 357 411 32,000  Level Chicago Center
Mon 07:39:48 PM 41.8614 -89.9961 262° West 373 429 32,000  Level Chicago Center
Mon 07:40:49 PM 41.8444 -90.1325 261° West 375 432 32,000  Level Chicago Center
Mon 07:41:51 PM 41.8283 -90.2658 261° West 369 425 32,000  Level Chicago Center
Mon 07:42:53 PM 41.8128 -90.3983 261° West 364 419 32,000  Level Chicago Center
Mon 07:43:55 PM 41.7942 -90.5483 261° West 369 425 32,000  Level Chicago Center
Mon 07:44:57 PM 41.7753 -90.6964 260° West 368 423 32,000  Level Chicago Center
Mon 07:45:58 PM 41.7586 -90.8317 261° West 370 426 32,000  Level Chicago Center
Mon 07:47:00 PM 41.7419 -90.9650 261° West 367 422 32,000  Level Chicago Center
Mon 07:48:02 PM 41.7247 -91.1000 260° West 367 422 32,000  Level Chicago Center
Mon 07:49:04 PM 41.7072 -91.2328 260° West 366 421 32,000  Level Chicago Center
Mon 07:50:05 PM 41.6861 -91.3919 260° West 364 419 32,000  Level Chicago Center
Mon 07:51:07 PM 41.6692 -91.5256 260° West 365 420 32,000  Level Chicago Center
Mon 07:52:09 PM 41.6514 -91.6575 260° West 363 418 32,000  Level Chicago Center
Mon 07:53:11 PM 41.6336 -91.7922 260° West 368 423 32,000  Level Chicago Center
Mon 07:54:13 PM 41.6153 -91.9258 260° West 370 426 32,000  Level Chicago Center
Mon 07:55:14 PM 41.5975 -92.0586 260° West 367 422 32,000  Level Chicago Center
Mon 07:56:16 PM 41.5794 -92.1931 260° West 369 425 32,000  Level Chicago Center
Mon 07:57:19 PM 41.5572 -92.3525 260° West 367 422 32,000  Level Chicago Center
Mon 07:58:20 PM 41.5389 -92.4850 260° West 366 421 32,000  Level Chicago Center
Mon 07:59:21 PM 41.5197 -92.6161 259° West 365 420 32,000  Level Chicago Center
Mon 07:59:37 PM 41.5147 -92.6522 260° West 364 419 32,000  Level Minneapolis Center
Mon 08:00:38 PM 41.4956 -92.7847 259° West 366 421 32,000  Level Minneapolis Center
Mon 08:01:52 PM 41.4764 -92.9139 259° West 363 418 32,000  Level Minneapolis Center
Mon 08:02:54 PM 41.4506 -93.0972 259° West 363 418 32,000  Level Minneapolis Center
Mon 08:03:55 PM 41.4317 -93.2281 259° West 363 418 32,000  Level Minneapolis Center
Mon 08:04:57 PM 41.4119 -93.3572 259° West 362 417 32,000  Level Minneapolis Center
Mon 08:05:58 PM 41.3919 -93.4858 258° West 359 413 32,000  Level Minneapolis Center
Mon 08:07:00 PM 41.3719 -93.6156 258° West 361 415 32,000  Level Minneapolis Center
Mon 08:08:01 PM 41.3522 -93.7458 259° West 361 415 32,000  Level Minneapolis Center
Mon 08:09:03 PM 41.3300 -93.8961 259° West 356 410 32,000  Level Minneapolis Center
Mon 08:10:04 PM 41.3114 -94.0242 259° West 356 410 32,000  Level Minneapolis Center
Mon 08:11:06 PM 41.2906 -94.1533 258° West 359 413 32,000  Level Minneapolis Center
Mon 08:12:08 PM 41.2697 -94.2883 258° West 361 415 32,000  Level Minneapolis Center
Mon 08:13:09 PM 41.2500 -94.4175 259° West 358 412 32,000  Level Minneapolis Center
Mon 08:14:11 PM 41.2275 -94.5469 257° West 359 413 32,000 -439 Level Minneapolis Center
Mon 08:15:12 PM 41.2072 -94.6747 258° West 357 411 31,100 -1,171 Descending Minneapolis Center
Mon 08:16:14 PM 41.1883 -94.8019 259° West 354 407 29,600 -1,561 Descending Minneapolis Center
Mon 08:17:15 PM 41.1661 -94.9333 257° West 359 413 27,900 -1,756 Descending Minneapolis Center
Mon 08:18:17 PM 41.1397 -95.0950 258° West 369 425 26,000 -1,756 Descending Minneapolis Center
Mon 08:19:18 PM 41.1169 -95.2292 257° West 372 428 24,300 -1,814 Descending Minneapolis Center
Mon 08:19:43 PM 41.1153 -95.2872 268° West 371 427 23,400 -2,032 Descending Minneapolis Center
Mon 08:20:20 PM 41.0944 -95.3625 250° West 371 427 22,200 -2,066 Descending Minneapolis Center
Mon 08:20:44 PM 41.0911 -95.4175 265° West 363 418 21,300 -2,129 Descending Minneapolis Center
Mon 08:21:22 PM 41.0733 -95.4906 252° West 360 414 20,000 -2,328 Descending Minneapolis Center
Mon 08:21:51 PM 41.0656 -95.5617 262° West 353 406 18,700 -2,164 Descending Minneapolis Center
Mon 08:22:23 PM 41.0514 -95.6197 252° West 357 411 17,800 -2,222 Descending Minneapolis Center
Mon 08:22:45 PM 41.0456 -95.6692 261° West 354 407 16,700 -2,226 Descending Minneapolis Center
Mon 08:23:25 PM 41.0292 -95.7442 254° West 352 405 15,500 -2,066 Descending Minneapolis Center
Mon 08:23:46 PM 41.0228 -95.7933 260° West 347 399 14,600 -1,935 Descending Minneapolis Center
Mon 08:24:27 PM 41.0083 -95.8703 256° West 349 402 13,500 -1,800 Descending Minneapolis Center
Mon 08:24:46 PM 40.9975 -95.9181 253° West 343 395 12,800 -1,672 Descending Minneapolis Center
Mon 08:25:28 PM 40.9872 -95.9919 260° West 341 392 11,800 -1,475 Descending Minneapolis Center
Mon 08:25:47 PM 40.9722 -96.0422 248° West 305 351 11,300 -871 Descending Minneapolis Center
Mon 08:26:30 PM 40.9578 -96.0961 250° West 306 352 10,900 -806 Descending Minneapolis Center
Mon 08:26:54 PM 40.9369 -96.1456 241° Southwest 283 326 10,400 -885 Descending Minneapolis Center
Mon 08:27:31 PM 40.9275 -96.1897 254° West 282 325 10,000 -1,182 Descending Minneapolis Center
Mon 08:28:00 PM 40.9072 -96.2372 241° Southwest 244 281 9,100 -1,742 Descending Minneapolis Center
Mon 08:28:33 PM 40.8969 -96.2933 256° West 256 295 8,200 -1,574 Descending Minneapolis Center
Mon 08:29:01 PM 40.8778 -96.3314 236° Southwest 260 299 7,500 -1,258 Descending Minneapolis Center
Mon 08:29:35 PM 40.8689 -96.3806 257° West 256 295 6,900 -1,180 Descending Minneapolis Center
Mon 08:30:02 PM 40.8453 -96.4175 230° Southwest 259 298 6,300 -984 Descending Minneapolis Center
Mon 08:30:36 PM 40.8372 -96.4661 258° West 257 296 5,900 -1,000 Descending Minneapolis Center
Mon 08:31:02 PM 40.8128 -96.5008 227° Southwest 256 295 5,300 -968 Descending Minneapolis Center
Mon 08:31:38 PM 40.8047 -96.5511 258° West 259 298 4,900 -984 Descending Minneapolis Center
Mon 08:32:03 PM 40.7803 -96.5814 223° Southwest 246 283 4,300 -968 Descending Minneapolis Center
Mon 08:32:40 PM 40.7761 -96.6297 264° West 251 289 3,900 -1,000 Descending Minneapolis Center
Mon 08:33:03 PM 40.7556 -96.6581 226° Southwest 211 243 3,300 -871 Descending Minneapolis Center
Mon 08:33:42 PM 40.7603 -96.6986 279° West 223 257 3,000 -689 Descending Minneapolis Center
Mon 08:34:04 PM 40.7547 -96.7161 247° West 141 162 2,600 -885 Descending Minneapolis Center
Mon 08:34:43 PM 40.7742 -96.7456 311° West 167 192 2,100 -716 Descending Minneapolis Center
Mon 08:35:11 PM 40.7822 -96.7544 320° Northwest 140 161 1,800 -194 Descending Minneapolis Center
Mon 08:35:45 PM 40.8056 -96.7819 318° Northwest 151 174 1,900 176 Climbing Minneapolis Center

Login

Don't have an account? Register now (free) for customized features, flight alerts, and more!